Aviation Digital Data Service (ADDS)

Output produced by METARs form (1934 UTC 25 March 2017)
found at http://www.aviationweather.gov/adds/metars/
 
LIMA 251750Z 31004KT 250V340 5000 TSRA BKN030 11/10 Q1017 REGR
LIMG 251750Z 27006KT 9999 BKN035 11/07 Q1017 RERA
LIEA 251920Z 18006KT 9999 FEW032 11/08 Q1021
TAF LIEA 251700Z 2518/2618 24008KT 9999 SCT040
       
LIPA 251855Z 35003KT CAVOK 15/11 Q1017 RMK SKC VIS MIN 9999 WIND THR05 01004KT WIND THR23 01004KT A3005 BLU
TAF LIPA 251700Z 2518/2603 VRB03KT CAVOK
       
LIME 251920Z 04003KT 020V080 7000 SCT050 16/11 Q1017 NOSIG
TAF LIME 251700Z 2518/2618 02005KT 8000 SCT090 
     TEMPO 2519/2522 TSRA 
     TEMPO 2522/2606 RA
       
LIPE 251920Z 12008KT 9999 FEW070 16/10 Q1017
TAF LIPE 251700Z 2518/2618 10010KT 8000 FEW030 
     BECMG 2518/2521 29007KT 
     TEMPO 2520/2603 SHRA 
     BECMG 2610/2612 10012KT
       
LIPB 251850Z 17005KT 9999 SCT080 19/06 Q1016
TAF LIPB 251700Z 2518/2618 VRB05KT 9999 SCT040 
     TEMPO 2610/2618 SHRA
       
LIRN 251920Z 29006KT 270V330 8000 NSC 15/12 Q1020 NOSIG
TAF LIRN 251700Z 2518/2618 VRB05KT 9999 SCT025 
     BECMG 2609/2611 28010KT
       
LIBR 251915Z /////KT 6000 NSC 14/11 Q1019 NOSIG
TAF LIBR 251700Z 2518/2618 VRB05KT 8000 NSC 
     BECMG 2608/2609 29012KT
       
LICC 251920Z 05007KT CAVOK 14/12 Q1020
TAF LICC 251700Z 2518/2618 26007KT 7000 FEW040 
     BECMG 2609/2611 09010KT
       
LIPC 251855Z 13003KT CAVOK 12/10 Q1017 RMK SCT SCT090 VIS MIN 9999 WIND THR11 14001KT WIND THR29 12002KT BLU
TAF LIPC 251700Z 2518/2603 12008KT 6000 FEW020 SCT030 
     TEMPO 2521/2602 3000 SHRA FEW020CB BKN025
       
LIRA 251920Z 17003KT 9000 SCT020 14/12 Q1020
TAF LIRA 251700Z 2518/2618 VRB05KT 9999 SCT025 
     TEMPO 2521/2602 SHRA 
     BECMG 2609/2611 33012KT
       
LIED 251755Z 32007KT 9999 SCT040 13/09 Q1020 RMK SCT VIS MIN 9999 WIND THR35 32007KT WIND THR17 /////KT BLU
TAF LIED 251700Z 2518/2603 31006KT 9999 FEW020
       
LIEE 251920Z 33006KT CAVOK 11/08 Q1021
TAF LIEE 251700Z 2518/2618 34012KT 9999 SCT025 
     BECMG 2520/2522 VRB05KT
       
LIPY 251850Z VRB02KT 8000 NSC 13/09 Q1017
TAF LIPY 251700Z 2518/2618 VRB05KT 6000 SCT040 
     TEMPO 2520/2603 RA 
     BECMG 2610/2612 03010KT
       
LIRF 251920Z 13004KT 110V180 9999 FEW015 SCT030 15/13 Q1020 TEMPO RA BKN014
TAF LIRF 251700Z 2518/2624 VRB05KT 9999 SCT025 
     TEMPO 2518/2521 SHRA 
     TEMPO 2521/2524 RA 
     BECMG 2603/2606 31013KT 
     BECMG 2700/2702 01015KT
       
LIMJ 251920Z VRB03KT 9999 RA SCT014 BKN039 12/09 Q1019
TAF LIMJ 251700Z 2518/2618 17010KT 9999 SCT080 
     TEMPO 2518/2521 4000 SHRA
       
LIPL 251855Z /////KT 6000 SCT085 16/09 Q1017 RMK BKN SCT110 VIS MIN 6000 WIND THR31 04002KT WHT
TAF LIPL 251700Z 2518/2603 09005KT 3000 BR SCT040 
     TEMPO 2521/2603 2000 RA BR SCT020 BKN030 
     PROB40 
     TEMPO 2522/2603 3000 TSRA FEW020CB
       
LIBF 251450Z 07010KT CAVOK 21/13 Q1018
LIBV 251855Z 17007KT CAVOK 12/10 Q1019 RMK SKC VIS MIN 9999 WIND THR32 18006KT WIND THR14 19003KT BLU
TAF LIBV 251700Z 2518/2603 18006KT 6000 NSC
       
LIRM 251855Z 24004KT 6000 SCT030 14/12 Q1019 RMK SCT VIS MIN 6000 WIND THR06 24004KT WHT
TAF LIRM 251100Z 2512/2521 06005KT CAVOK 
     TEMPO 2512/2516 19009KT
       
LIRS 251855Z 17004KT 9999 -RA SCT040 15/13 Q1019 RMK BKN BKN100 VIS MIN 9999 WIND THR03 17004KT WIND THR21 17003KT BLU
TAF LIRS 251700Z 2518/2603 19011KT 9999 FEW025 SCT040 
     TEMPO 2518/2523 RA BR BKN020 
     PROB40 
     TEMPO 2518/2520 20012G26KT TSRA FEW016CB 
     BECMG 2522/2524 34011KT
       
LIBG 251850Z 00000KT CAVOK 14/09 Q1018
TAF LIBG 251400Z 2515/2524 VRB06KT 9999 FEW030
       
LIPS 251855Z 15004KT CAVOK 15/11 Q1017 RMK SKC VIS MIN 9999 WIND THR26 15004KT WIND THR08 15004KT BLU
TAF LIPS 251700Z 2518/2603 10007KT 8000 FEW020 SCT040
       
LICA 251850Z 09006KT CAVOK 12/10 Q1020
TAF LICA 251700Z 2518/2618 VRB05KT CAVOK 
     BECMG 2608/2610 27013KT
       
LICD 251850Z 11004KT 8000 NSC 15/15 Q1020
TAF LICD 251700Z 2518/2618 13012KT 7000 SCT030 
     BECMG 2520/2522 36012KT
       
LIBN 251855Z VRB01KT CAVOK 13/11 Q1019 RMK SKC VIS MIN 9999 WIND THR14 VRB01KT WIND THR32 VRB01KT BLU
LIMZ 251850Z 34005KT 8000 RA BKN030 10/09 Q1017
TAF LIMZ 251700Z 2518/2618 VRB05KT 8000 SCT040 SCT100 
     TEMPO 2518/2521 RA
       
LIML 251920Z VRB02KT 6000 -RA VCTS FEW015CB SCT040 BKN070 16/14 Q1017 BECMG TS
TAF LIML 251700Z 2518/2618 VRB05KT 8000 SCT080 
     TEMPO 2518/2521 3000 TSRA 
     TEMPO 2521/2606 RA
       
LIMC 251920Z 27005KT 190V290 6000 -TSRA FEW025CB BKN050 15/11 Q1018 NOSIG
TAF LIMC 251700Z 2518/2624 VRB05KT 9999 SCT080 
     TEMPO 2518/2522 3000 TSRA 
     TEMPO 2522/2606 RA
       
LIPO 251850Z 06003KT 8000 NSC 17/10 Q1016
TAF LIPO 251700Z 2518/2618 VRB05KT 6000 NSC 
     TEMPO 2520/2523 3000 TSRA 
     TEMPO 2523/2606 RA
       
LIEO 251920Z 21004KT CAVOK 10/07 Q1021
TAF LIEO 251700Z 2518/2618 25013KT 9999 SCT030
       
LICJ 251920Z 04004KT 9000 FEW005 SCT030 16/14 Q1022
TAF LICJ 251700Z 2518/2618 06013KT CAVOK 
     BECMG 2518/2520 VRB05KT 
     BECMG 2606/2608 03010KT
       
LIBD 251920Z 15002KT 5000 BR NSC 11/10 Q1018
TAF LIBD 251700Z 2518/2618 VRB05KT 6000 FEW030 
     TEMPO 2518/2606 3000 BR 
     BECMG 2609/2611 03015KT
       
LICG 251755Z 20001KT 7000 BKN016 16/13 Q1019 RMK BKN VIS MIN 7000 WIND THR08 /////KT WIND THR21 08002KT WHT
TAF LICG 251700Z 2518/2603 33010KT 9999 BKN015
       
LIMP 251913Z 18016KT 8000 -TSRA SCT040CB BKN050 16/10 Q1018
TAF LIMP 251700Z 2518/2618 VRB05KT 7000 SCT080 
     TEMPO 2518/2522 3000 TSRA 
     TEMPO 2522/2602 RA
       
LIRQ 251920Z 18004KT 110V230 9999 FEW015 BKN030 13/11 Q1019
TAF LIRQ 251700Z 2518/2618 23008KT 9999 SCT025 
     TEMPO 2518/2522 TSRA 
     BECMG 2612/2614 29010KT
       
LIRZ 251850Z 22007KT 9999 SCT050 18/06 Q1018
TAF LIRZ 251700Z 2518/2618 20008KT 9999 SCT030 
     TEMPO 2600/2603 SHRA
       
LIBP 251850Z 05002KT 7000 NSC 14/10 Q1018
TAF LIBP 251700Z 2518/2618 VRB05KT 7000 FEW030 
     TEMPO 2600/2605 RA 
     BECMG 2610/2612 04013KT
       
LIRP 251915Z 29014KT 9999 FEW015 BKN035 12/10 Q1020 NOSIG
TAF LIRP 251700Z 2518/2618 24013KT 5000 RA BR SCT020 BKN030 
     TEMPO 2518/2521 22015G25KT 3000 TSRA FEW015CB BKN025 
     BECMG 2600/2602 28005KT 3000 BR FEW020
       
LIRI 251550Z 24005KT CAVOK 18/10 Q1019
LIRE 251855Z 13004KT 8000 -RA FEW015 SCT025 13/12 Q1020 RMK BKN VIS MIN 8000 WIND THR13 14004KT WIND THR31 /////KT BLU
TAF LIRE 251700Z 2518/2603 17008KT 9999 FEW020 SCT040 
     BECMG 2520/2522 34011KT
       
LICR 251850Z 14003KT CAVOK 14/11 Q1020
TAF LICR 251700Z 2518/2618 20010KT 9999 SCT030 
     BECMG 2602/2604 34014KT
       
LIPR 251915Z 11003KT 6000 NSC 12/10 Q1017
TAF LIPR 251700Z 2518/2603 10008KT 3000 BR FEW020 SCT030 
     TEMPO 2521/2602 3000 SHRA FEW020CB BKN025
       
LIPQ 251920Z VRB01KT CAVOK 13/09 Q1017
TAF LIPQ 251700Z 2518/2618 04007KT CAVOK
       
LICZ 251855Z 14004KT CAVOK 14/14 Q1020 RMK SKC VIS MIN 9999 WIND THR28 /////KT WIND THR10 15004KT A3014 BLU
TAF LICZ 251100Z 2512/2521 10012KT CAVOK
       
LIMF 251920Z 29004KT 250V310 7000 RA SCT028 BKN060 12/10 Q1017
TAF LIMF 251700Z 2518/2618 VRB05KT 8000 SCT040 BKN100 
     TEMPO 2518/2521 3000 TSRA 
     TEMPO 2602/2606 1500 BCFG
       
LICT 251855Z 14006KT 9999 SCT022 16/14 Q1021 RMK BKN SCT080 VIS MIN 9999 WIND THR13 16005KT BLU
TAF LICT 251700Z 2518/2603 18015KT 9999 FEW030 
     BECMG 2520/2522 SCT015 
     BECMG 2522/2600 35010KT
       
LIPH 251920Z 09002KT CAVOK 14/10 Q1017
TAF LIPH 251700Z 2518/2618 VRB05KT 8000 FEW030 
     TEMPO 2520/2603 RA 
     TEMPO 2612/2618 RA
       
LIRU 251550Z 24009KT CAVOK 18/10 Q1018
TAF LIRU 251700Z 2518/2603 VRB05KT 9999 SCT030 
     TEMPO 2521/2524 4000 RA
       
LIPZ 251920Z 13005KT CAVOK 13/11 Q1017 NOSIG
TAF LIPZ 251700Z 2518/2624 VRB05KT 9999 FEW030 
     TEMPO 2520/2603 RA 
     BECMG 2610/2612 07010KT 
     TEMPO 2612/2618 RA
       
LIPX 251920Z 07005KT CAVOK 16/07 Q1017
TAF LIPX 251700Z 2518/2603 VRB05KT CAVOK 
     TEMPO 2520/2603 SHRA
       
LIRV 251755Z 26003KT CAVOK 14/08 Q1019 RMK SCT SCT060 MON E SE LIB NC VIS MIN 9999 BLU
TAF LIRV 251400Z 2515/2524 21016KT 9999 FEW025 SCT040 
     TEMPO 2517/2521 5000 RA BR BKN020 
     PROB30 
     TEMPO 2519/2522 20016G26KT SHRA FEW018CB